sensor_id;sensor_type;location;lat;lon;timestamp;P1;durP1;ratioP1;P2;durP2;ratioP2
61709;SDS011;47633;51.494;5.386;2023-03-03T00:00:45;7.78;;;5.68;;
61709;SDS011;47633;51.494;5.386;2023-03-03T00:03:11;8.48;;;6.22;;
61709;SDS011;47633;51.494;5.386;2023-03-03T00:05:40;7.57;;;5.32;;
61709;SDS011;47633;51.494;5.386;2023-03-03T00:08:06;10.00;;;6.75;;
61709;SDS011;47633;51.494;5.386;2023-03-03T00:10:32;8.75;;;5.57;;
61709;SDS011;47633;51.494;5.386;2023-03-03T00:12:58;8.82;;;5.88;;
61709;SDS011;47633;51.494;5.386;2023-03-03T00:15:24;8.10;;;5.85;;
61709;SDS011;47633;51.494;5.386;2023-03-03T00:17:51;8.55;;;6.07;;
61709;SDS011;47633;51.494;5.386;2023-03-03T00:20:36;8.23;;;5.45;;
61709;SDS011;47633;51.494;5.386;2023-03-03T00:28:55;8.80;;;6.10;;
61709;SDS011;47633;51.494;5.386;2023-03-03T00:31:34;8.07;;;6.05;;
61709;SDS011;47633;51.494;5.386;2023-03-03T00:34:17;8.35;;;5.72;;
61709;SDS011;47633;51.494;5.386;2023-03-03T00:36:48;8.50;;;5.95;;
61709;SDS011;47633;51.494;5.386;2023-03-03T00:39:33;8.13;;;5.78;;
61709;SDS011;47633;51.494;5.386;2023-03-03T00:42:00;7.88;;;5.72;;
61709;SDS011;47633;51.494;5.386;2023-03-03T00:44:35;8.07;;;5.68;;
61709;SDS011;47633;51.494;5.386;2023-03-03T00:52:30;7.82;;;5.70;;
61709;SDS011;47633;51.494;5.386;2023-03-03T00:54:59;7.25;;;4.95;;
61709;SDS011;47633;51.494;5.386;2023-03-03T00:57:24;7.30;;;5.10;;
61709;SDS011;47633;51.494;5.386;2023-03-03T00:59:49;7.95;;;5.68;;
61709;SDS011;47633;51.494;5.386;2023-03-03T01:02:14;7.50;;;5.47;;
61709;SDS011;47633;51.494;5.386;2023-03-03T01:04:40;8.60;;;5.95;;
61709;SDS011;47633;51.494;5.386;2023-03-03T01:07:07;8.27;;;5.55;;
61709;SDS011;47633;51.494;5.386;2023-03-03T01:09:32;8.70;;;5.70;;
61709;SDS011;47633;51.494;5.386;2023-03-03T01:11:57;9.50;;;5.57;;
61709;SDS011;47633;51.494;5.386;2023-03-03T01:14:23;7.10;;;5.00;;
61709;SDS011;47633;51.494;5.386;2023-03-03T01:16:49;7.45;;;5.10;;
61709;SDS011;47633;51.494;5.386;2023-03-03T01:19:15;8.73;;;5.13;;
61709;SDS011;47633;51.494;5.386;2023-03-03T01:21:40;7.43;;;5.13;;
61709;SDS011;47633;51.494;5.386;2023-03-03T01:24:05;7.75;;;5.55;;
61709;SDS011;47633;51.494;5.386;2023-03-03T01:26:31;7.68;;;5.43;;
61709;SDS011;47633;51.494;5.386;2023-03-03T01:28:56;7.82;;;5.05;;
61709;SDS011;47633;51.494;5.386;2023-03-03T01:31:21;7.25;;;5.03;;
61709;SDS011;47633;51.494;5.386;2023-03-03T01:33:46;7.07;;;5.10;;
61709;SDS011;47633;51.494;5.386;2023-03-03T01:36:12;7.85;;;5.53;;
61709;SDS011;47633;51.494;5.386;2023-03-03T01:38:37;7.25;;;5.40;;
61709;SDS011;47633;51.494;5.386;2023-03-03T01:41:04;7.38;;;5.10;;
61709;SDS011;47633;51.494;5.386;2023-03-03T01:43:30;7.55;;;5.10;;
61709;SDS011;47633;51.494;5.386;2023-03-03T01:48:41;7.30;;;5.23;;
61709;SDS011;47633;51.494;5.386;2023-03-03T01:51:20;7.55;;;5.40;;
61709;SDS011;47633;51.494;5.386;2023-03-03T01:53:53;7.57;;;5.25;;
61709;SDS011;47633;51.494;5.386;2023-03-03T01:56:21;7.65;;;5.43;;
61709;SDS011;47633;51.494;5.386;2023-03-03T01:58:58;7.47;;;5.32;;
61709;SDS011;47633;51.494;5.386;2023-03-03T02:01:26;7.32;;;5.07;;
61709;SDS011;47633;51.494;5.386;2023-03-03T02:03:53;7.22;;;5.30;;
61709;SDS011;47633;51.494;5.386;2023-03-03T02:06:21;7.30;;;5.10;;
61709;SDS011;47633;51.494;5.386;2023-03-03T02:11:26;8.32;;;5.10;;
61709;SDS011;47633;51.494;5.386;2023-03-03T02:13:54;7.85;;;5.60;;
61709;SDS011;47633;51.494;5.386;2023-03-03T02:16:19;8.55;;;5.38;;
61709;SDS011;47633;51.494;5.386;2023-03-03T02:18:45;7.82;;;4.95;;
61709;SDS011;47633;51.494;5.386;2023-03-03T02:21:11;7.18;;;4.82;;
61709;SDS011;47633;51.494;5.386;2023-03-03T02:26:39;7.43;;;4.85;;
61709;SDS011;47633;51.494;5.386;2023-03-03T02:29:05;7.10;;;4.90;;
61709;SDS011;47633;51.494;5.386;2023-03-03T02:31:31;7.30;;;5.13;;
61709;SDS011;47633;51.494;5.386;2023-03-03T02:33:57;7.60;;;5.25;;
61709;SDS011;47633;51.494;5.386;2023-03-03T02:36:44;7.72;;;5.53;;
61709;SDS011;47633;51.494;5.386;2023-03-03T02:39:13;7.38;;;4.97;;
61709;SDS011;47633;51.494;5.386;2023-03-03T02:41:49;8.13;;;4.80;;
61709;SDS011;47633;51.494;5.386;2023-03-03T02:44:21;7.65;;;5.10;;
61709;SDS011;47633;51.494;5.386;2023-03-03T02:46:49;7.75;;;5.25;;
61709;SDS011;47633;51.494;5.386;2023-03-03T02:49:19;7.68;;;5.65;;
61709;SDS011;47633;51.494;5.386;2023-03-03T02:51:46;8.05;;;5.20;;
61709;SDS011;47633;51.494;5.386;2023-03-03T02:54:12;6.40;;;4.63;;
61709;SDS011;47633;51.494;5.386;2023-03-03T02:56:39;7.50;;;5.13;;
61709;SDS011;47633;51.494;5.386;2023-03-03T02:59:05;7.28;;;4.95;;
61709;SDS011;47633;51.494;5.386;2023-03-03T03:01:31;7.57;;;5.20;;
61709;SDS011;47633;51.494;5.386;2023-03-03T03:04:01;7.68;;;5.13;;
61709;SDS011;47633;51.494;5.386;2023-03-03T03:06:30;7.78;;;5.25;;
61709;SDS011;47633;51.494;5.386;2023-03-03T03:08:55;9.90;;;5.70;;
61709;SDS011;47633;51.494;5.386;2023-03-03T03:11:20;7.13;;;5.15;;
61709;SDS011;47633;51.494;5.386;2023-03-03T03:13:46;7.30;;;5.07;;
61709;SDS011;47633;51.494;5.386;2023-03-03T03:16:11;7.03;;;4.75;;
61709;SDS011;47633;51.494;5.386;2023-03-03T03:18:36;7.40;;;5.05;;
61709;SDS011;47633;51.494;5.386;2023-03-03T03:21:08;7.43;;;4.88;;
61709;SDS011;47633;51.494;5.386;2023-03-03T03:23:35;7.78;;;5.10;;
61709;SDS011;47633;51.494;5.386;2023-03-03T03:26:00;7.78;;;4.88;;
61709;SDS011;47633;51.494;5.386;2023-03-03T03:28:25;7.07;;;4.47;;
61709;SDS011;47633;51.494;5.386;2023-03-03T03:30:51;6.82;;;4.57;;
61709;SDS011;47633;51.494;5.386;2023-03-03T03:33:16;7.63;;;5.30;;
61709;SDS011;47633;51.494;5.386;2023-03-03T03:35:41;7.75;;;5.10;;
61709;SDS011;47633;51.494;5.386;2023-03-03T03:38:09;7.70;;;5.03;;
61709;SDS011;47633;51.494;5.386;2023-03-03T03:40:35;8.13;;;5.13;;
61709;SDS011;47633;51.494;5.386;2023-03-03T03:43:01;7.65;;;5.18;;
61709;SDS011;47633;51.494;5.386;2023-03-03T03:45:26;7.57;;;4.72;;
61709;SDS011;47633;51.494;5.386;2023-03-03T03:47:51;6.97;;;4.75;;
61709;SDS011;47633;51.494;5.386;2023-03-03T03:50:16;6.70;;;4.77;;
61709;SDS011;47633;51.494;5.386;2023-03-03T03:52:42;7.05;;;4.72;;
61709;SDS011;47633;51.494;5.386;2023-03-03T03:55:08;8.00;;;5.07;;
61709;SDS011;47633;51.494;5.386;2023-03-03T03:57:33;7.55;;;4.95;;
61709;SDS011;47633;51.494;5.386;2023-03-03T03:59:59;6.75;;;4.70;;
61709;SDS011;47633;51.494;5.386;2023-03-03T04:02:24;8.18;;;4.78;;
61709;SDS011;47633;51.494;5.386;2023-03-03T04:04:49;7.30;;;5.20;;
61709;SDS011;47633;51.494;5.386;2023-03-03T04:07:15;7.82;;;5.00;;
61709;SDS011;47633;51.494;5.386;2023-03-03T04:09:40;7.35;;;4.90;;
61709;SDS011;47633;51.494;5.386;2023-03-03T04:12:05;7.55;;;4.93;;
61709;SDS011;47633;51.494;5.386;2023-03-03T04:14:31;8.65;;;5.38;;
61709;SDS011;47633;51.494;5.386;2023-03-03T04:16:56;7.20;;;4.80;;
61709;SDS011;47633;51.494;5.386;2023-03-03T04:19:22;7.60;;;5.00;;
61709;SDS011;47633;51.494;5.386;2023-03-03T04:21:47;7.68;;;4.97;;
61709;SDS011;47633;51.494;5.386;2023-03-03T04:24:13;6.60;;;4.70;;
61709;SDS011;47633;51.494;5.386;2023-03-03T04:26:38;7.03;;;4.63;;
61709;SDS011;47633;51.494;5.386;2023-03-03T04:29:03;6.80;;;4.85;;
61709;SDS011;47633;51.494;5.386;2023-03-03T04:31:29;7.38;;;4.80;;
61709;SDS011;47633;51.494;5.386;2023-03-03T04:33:54;7.00;;;4.70;;
61709;SDS011;47633;51.494;5.386;2023-03-03T04:36:20;6.95;;;4.70;;
61709;SDS011;47633;51.494;5.386;2023-03-03T04:38:45;6.68;;;4.35;;
61709;SDS011;47633;51.494;5.386;2023-03-03T04:41:11;6.65;;;4.55;;
61709;SDS011;47633;51.494;5.386;2023-03-03T04:43:36;6.90;;;4.50;;
61709;SDS011;47633;51.494;5.386;2023-03-03T04:46:02;7.10;;;4.85;;
61709;SDS011;47633;51.494;5.386;2023-03-03T04:48:27;7.55;;;4.80;;
61709;SDS011;47633;51.494;5.386;2023-03-03T04:50:52;6.63;;;4.35;;
61709;SDS011;47633;51.494;5.386;2023-03-03T04:53:18;8.93;;;4.50;;
61709;SDS011;47633;51.494;5.386;2023-03-03T04:55:43;7.47;;;4.75;;
61709;SDS011;47633;51.494;5.386;2023-03-03T04:58:09;8.68;;;4.82;;
61709;SDS011;47633;51.494;5.386;2023-03-03T05:00:34;7.18;;;4.90;;
61709;SDS011;47633;51.494;5.386;2023-03-03T05:03:00;7.28;;;4.65;;
61709;SDS011;47633;51.494;5.386;2023-03-03T05:05:25;7.13;;;4.88;;
61709;SDS011;47633;51.494;5.386;2023-03-03T05:07:50;7.50;;;4.80;;
61709;SDS011;47633;51.494;5.386;2023-03-03T05:10:16;7.03;;;4.82;;
61709;SDS011;47633;51.494;5.386;2023-03-03T05:12:42;7.25;;;4.72;;
61709;SDS011;47633;51.494;5.386;2023-03-03T05:15:08;8.15;;;4.55;;
61709;SDS011;47633;51.494;5.386;2023-03-03T05:17:33;5.88;;;3.90;;
61709;SDS011;47633;51.494;5.386;2023-03-03T05:19:59;6.30;;;4.10;;
61709;SDS011;47633;51.494;5.386;2023-03-03T05:22:24;6.70;;;4.32;;
61709;SDS011;47633;51.494;5.386;2023-03-03T05:24:49;7.75;;;5.13;;
61709;SDS011;47633;51.494;5.386;2023-03-03T05:27:15;8.07;;;4.82;;
61709;SDS011;47633;51.494;5.386;2023-03-03T05:29:41;7.03;;;4.50;;
61709;SDS011;47633;51.494;5.386;2023-03-03T05:32:06;7.63;;;4.70;;
61709;SDS011;47633;51.494;5.386;2023-03-03T05:34:31;8.10;;;5.32;;
61709;SDS011;47633;51.494;5.386;2023-03-03T05:36:56;7.22;;;4.40;;
61709;SDS011;47633;51.494;5.386;2023-03-03T05:39:23;7.22;;;4.55;;
61709;SDS011;47633;51.494;5.386;2023-03-03T05:41:48;6.68;;;4.53;;
61709;SDS011;47633;51.494;5.386;2023-03-03T05:44:14;5.43;;;3.50;;
61709;SDS011;47633;51.494;5.386;2023-03-03T05:46:39;5.32;;;3.20;;
61709;SDS011;47633;51.494;5.386;2023-03-03T05:49:06;5.30;;;3.10;;
61709;SDS011;47633;51.494;5.386;2023-03-03T05:51:31;5.72;;;3.08;;
61709;SDS011;47633;51.494;5.386;2023-03-03T05:53:57;5.22;;;3.00;;
61709;SDS011;47633;51.494;5.386;2023-03-03T05:56:22;5.65;;;2.78;;
61709;SDS011;47633;51.494;5.386;2023-03-03T05:58:47;5.18;;;2.75;;
61709;SDS011;47633;51.494;5.386;2023-03-03T06:01:13;5.27;;;2.70;;
61709;SDS011;47633;51.494;5.386;2023-03-03T06:03:38;5.18;;;2.90;;
61709;SDS011;47633;51.494;5.386;2023-03-03T06:06:03;5.50;;;2.75;;
61709;SDS011;47633;51.494;5.386;2023-03-03T06:08:29;5.38;;;2.80;;
61709;SDS011;47633;51.494;5.386;2023-03-03T06:10:56;6.03;;;2.90;;
61709;SDS011;47633;51.494;5.386;2023-03-03T06:13:21;5.30;;;3.00;;
61709;SDS011;47633;51.494;5.386;2023-03-03T06:15:46;5.28;;;2.90;;
61709;SDS011;47633;51.494;5.386;2023-03-03T06:18:12;5.63;;;2.97;;
61709;SDS011;47633;51.494;5.386;2023-03-03T06:20:37;4.50;;;2.63;;
61709;SDS011;47633;51.494;5.386;2023-03-03T06:23:03;4.60;;;2.80;;
61709;SDS011;47633;51.494;5.386;2023-03-03T06:25:28;4.40;;;2.42;;
61709;SDS011;47633;51.494;5.386;2023-03-03T06:27:54;4.20;;;2.40;;
61709;SDS011;47633;51.494;5.386;2023-03-03T06:30:19;4.85;;;2.80;;
61709;SDS011;47633;51.494;5.386;2023-03-03T06:32:44;5.20;;;2.80;;
61709;SDS011;47633;51.494;5.386;2023-03-03T06:35:10;4.70;;;2.78;;
61709;SDS011;47633;51.494;5.386;2023-03-03T06:37:35;5.15;;;2.88;;
61709;SDS011;47633;51.494;5.386;2023-03-03T06:40:01;6.43;;;2.92;;
61709;SDS011;47633;51.494;5.386;2023-03-03T06:42:27;4.90;;;2.70;;
61709;SDS011;47633;51.494;5.386;2023-03-03T06:44:52;4.80;;;2.80;;
61709;SDS011;47633;51.494;5.386;2023-03-03T06:47:18;5.20;;;2.67;;
61709;SDS011;47633;51.494;5.386;2023-03-03T06:49:43;5.10;;;2.60;;
61709;SDS011;47633;51.494;5.386;2023-03-03T06:52:12;4.22;;;2.28;;
61709;SDS011;47633;51.494;5.386;2023-03-03T06:54:42;5.18;;;2.63;;
61709;SDS011;47633;51.494;5.386;2023-03-03T07:02:39;4.63;;;2.65;;
61709;SDS011;47633;51.494;5.386;2023-03-03T07:05:06;4.82;;;2.70;;
61709;SDS011;47633;51.494;5.386;2023-03-03T07:07:36;4.35;;;2.50;;
61709;SDS011;47633;51.494;5.386;2023-03-03T07:10:05;5.20;;;2.28;;
61709;SDS011;47633;51.494;5.386;2023-03-03T07:12:37;5.65;;;3.05;;
61709;SDS011;47633;51.494;5.386;2023-03-03T07:15:12;5.13;;;2.70;;
61709;SDS011;47633;51.494;5.386;2023-03-03T07:17:41;5.35;;;2.85;;
61709;SDS011;47633;51.494;5.386;2023-03-03T07:22:44;5.47;;;2.78;;
61709;SDS011;47633;51.494;5.386;2023-03-03T07:25:17;5.15;;;2.45;;
61709;SDS011;47633;51.494;5.386;2023-03-03T07:27:55;7.38;;;2.65;;
61709;SDS011;47633;51.494;5.386;2023-03-03T07:30:24;6.75;;;2.45;;
61709;SDS011;47633;51.494;5.386;2023-03-03T07:32:52;7.18;;;2.67;;
61709;SDS011;47633;51.494;5.386;2023-03-03T07:35:37;5.60;;;2.65;;
61709;SDS011;47633;51.494;5.386;2023-03-03T07:40:54;4.72;;;2.90;;
61709;SDS011;47633;51.494;5.386;2023-03-03T07:43:29;5.63;;;2.60;;
61709;SDS011;47633;51.494;5.386;2023-03-03T07:45:56;5.97;;;3.20;;
61709;SDS011;47633;51.494;5.386;2023-03-03T07:48:45;5.07;;;2.75;;
61709;SDS011;47633;51.494;5.386;2023-03-03T07:51:56;5.20;;;3.05;;
61709;SDS011;47633;51.494;5.386;2023-03-03T07:56:52;12.32;;;3.45;;
61709;SDS011;47633;51.494;5.386;2023-03-03T07:59:23;7.22;;;3.20;;
61709;SDS011;47633;51.494;5.386;2023-03-03T08:01:50;6.60;;;3.08;;
61709;SDS011;47633;51.494;5.386;2023-03-03T08:04:20;6.03;;;2.75;;
61709;SDS011;47633;51.494;5.386;2023-03-03T08:07:13;6.05;;;2.78;;
61709;SDS011;47633;51.494;5.386;2023-03-03T08:10:00;7.30;;;2.90;;
61709;SDS011;47633;51.494;5.386;2023-03-03T08:12:41;6.35;;;2.78;;
61709;SDS011;47633;51.494;5.386;2023-03-03T08:17:47;5.20;;;3.33;;
61709;SDS011;47633;51.494;5.386;2023-03-03T08:20:38;5.40;;;2.80;;
61709;SDS011;47633;51.494;5.386;2023-03-03T08:23:08;8.35;;;2.75;;
61709;SDS011;47633;51.494;5.386;2023-03-03T08:25:34;7.90;;;3.00;;
61709;SDS011;47633;51.494;5.386;2023-03-03T08:27:59;6.45;;;2.63;;
61709;SDS011;47633;51.494;5.386;2023-03-03T08:30:24;7.00;;;2.88;;
61709;SDS011;47633;51.494;5.386;2023-03-03T08:32:50;5.65;;;2.70;;
61709;SDS011;47633;51.494;5.386;2023-03-03T08:35:15;7.63;;;3.03;;
61709;SDS011;47633;51.494;5.386;2023-03-03T08:37:40;6.32;;;3.35;;
61709;SDS011;47633;51.494;5.386;2023-03-03T08:40:06;6.85;;;3.00;;
61709;SDS011;47633;51.494;5.386;2023-03-03T08:42:32;5.80;;;3.03;;
61709;SDS011;47633;51.494;5.386;2023-03-03T08:44:57;5.07;;;2.57;;
61709;SDS011;47633;51.494;5.386;2023-03-03T08:47:22;5.45;;;2.42;;
61709;SDS011;47633;51.494;5.386;2023-03-03T08:49:47;5.30;;;2.53;;
61709;SDS011;47633;51.494;5.386;2023-03-03T08:52:13;6.17;;;2.90;;
61709;SDS011;47633;51.494;5.386;2023-03-03T08:54:38;6.95;;;2.80;;
61709;SDS011;47633;51.494;5.386;2023-03-03T08:57:03;6.20;;;2.70;;
61709;SDS011;47633;51.494;5.386;2023-03-03T08:59:29;5.13;;;2.70;;
61709;SDS011;47633;51.494;5.386;2023-03-03T09:01:54;6.77;;;3.13;;
61709;SDS011;47633;51.494;5.386;2023-03-03T09:04:19;5.90;;;2.60;;
61709;SDS011;47633;51.494;5.386;2023-03-03T09:06:45;10.07;;;3.33;;
61709;SDS011;47633;51.494;5.386;2023-03-03T09:09:10;8.10;;;3.70;;
61709;SDS011;47633;51.494;5.386;2023-03-03T09:11:35;8.48;;;3.53;;
61709;SDS011;47633;51.494;5.386;2023-03-03T09:14:05;7.55;;;3.33;;
61709;SDS011;47633;51.494;5.386;2023-03-03T09:16:32;6.35;;;3.28;;
61709;SDS011;47633;51.494;5.386;2023-03-03T09:19:05;6.97;;;3.45;;
61709;SDS011;47633;51.494;5.386;2023-03-03T09:21:42;7.55;;;3.72;;
61709;SDS011;47633;51.494;5.386;2023-03-03T09:24:11;6.90;;;3.38;;
61709;SDS011;47633;51.494;5.386;2023-03-03T09:26:47;6.43;;;2.97;;
61709;SDS011;47633;51.494;5.386;2023-03-03T09:34:18;5.88;;;3.30;;
61709;SDS011;47633;51.494;5.386;2023-03-03T09:36:46;7.15;;;3.00;;
61709;SDS011;47633;51.494;5.386;2023-03-03T09:39:23;5.50;;;3.03;;
61709;SDS011;47633;51.494;5.386;2023-03-03T09:42:11;8.00;;;3.60;;
61709;SDS011;47633;51.494;5.386;2023-03-03T09:53:26;7.03;;;3.20;;
61709;SDS011;47633;51.494;5.386;2023-03-03T09:56:08;7.80;;;3.85;;
61709;SDS011;47633;51.494;5.386;2023-03-03T09:58:51;7.63;;;3.17;;
61709;SDS011;47633;51.494;5.386;2023-03-03T10:01:36;6.68;;;2.88;;
61709;SDS011;47633;51.494;5.386;2023-03-03T10:10:05;6.05;;;2.88;;
61709;SDS011;47633;51.494;5.386;2023-03-03T10:18:11;5.43;;;2.72;;
61709;SDS011;47633;51.494;5.386;2023-03-03T10:29:10;7.15;;;3.63;;
61709;SDS011;47633;51.494;5.386;2023-03-03T10:34:15;6.05;;;3.75;;
61709;SDS011;47633;51.494;5.386;2023-03-03T10:36:54;5.80;;;3.30;;
61709;SDS011;47633;51.494;5.386;2023-03-03T10:42:16;8.93;;;3.40;;
61709;SDS011;47633;51.494;5.386;2023-03-03T10:47:39;9.57;;;4.15;;
61709;SDS011;47633;51.494;5.386;2023-03-03T10:55:48;8.50;;;4.18;;
61709;SDS011;47633;51.494;5.386;2023-03-03T11:08:57;7.40;;;4.05;;
61709;SDS011;47633;51.494;5.386;2023-03-03T11:11:50;8.40;;;4.05;;
61709;SDS011;47633;51.494;5.386;2023-03-03T11:17:59;8.48;;;4.55;;
61709;SDS011;47633;51.494;5.386;2023-03-03T11:20:45;11.00;;;4.82;;
61709;SDS011;47633;51.494;5.386;2023-03-03T11:23:38;10.15;;;4.63;;
61709;SDS011;47633;51.494;5.386;2023-03-03T11:26:25;10.98;;;4.32;;
61709;SDS011;47633;51.494;5.386;2023-03-03T11:29:39;7.88;;;4.20;;
61709;SDS011;47633;51.494;5.386;2023-03-03T11:32:02;11.15;;;4.32;;
61709;SDS011;47633;51.494;5.386;2023-03-03T11:37:16;7.88;;;4.38;;
61709;SDS011;47633;51.494;5.386;2023-03-03T11:39:44;9.82;;;4.38;;
61709;SDS011;47633;51.494;5.386;2023-03-03T11:44:59;8.68;;;4.70;;
61709;SDS011;47633;51.494;5.386;2023-03-03T11:50:07;8.43;;;4.22;;
61709;SDS011;47633;51.494;5.386;2023-03-03T11:52:50;7.35;;;4.15;;
61709;SDS011;47633;51.494;5.386;2023-03-03T11:55:26;8.65;;;4.13;;
61709;SDS011;47633;51.494;5.386;2023-03-03T12:00:44;8.23;;;4.20;;
61709;SDS011;47633;51.494;5.386;2023-03-03T12:03:25;8.65;;;3.88;;
61709;SDS011;47633;51.494;5.386;2023-03-03T12:06:05;9.45;;;3.80;;
61709;SDS011;47633;51.494;5.386;2023-03-03T12:08:56;9.10;;;4.07;;
61709;SDS011;47633;51.494;5.386;2023-03-03T12:16:57;8.60;;;4.18;;
61709;SDS011;47633;51.494;5.386;2023-03-03T12:22:26;8.02;;;3.72;;
61709;SDS011;47633;51.494;5.386;2023-03-03T12:28:05;7.45;;;3.72;;
61709;SDS011;47633;51.494;5.386;2023-03-03T12:33:27;6.87;;;3.50;;
61709;SDS011;47633;51.494;5.386;2023-03-03T12:47:17;6.57;;;3.47;;
61709;SDS011;47633;51.494;5.386;2023-03-03T12:53:16;6.22;;;3.22;;
61709;SDS011;47633;51.494;5.386;2023-03-03T12:56:00;5.70;;;2.83;;
61709;SDS011;47633;51.494;5.386;2023-03-03T13:06:30;6.75;;;3.30;;
61709;SDS011;47633;51.494;5.386;2023-03-03T13:09:02;6.40;;;3.10;;
61709;SDS011;47633;51.494;5.386;2023-03-03T13:19:39;5.97;;;3.13;;
61709;SDS011;47633;51.494;5.386;2023-03-03T13:22:12;4.90;;;2.72;;
61709;SDS011;47633;51.494;5.386;2023-03-03T13:24:58;5.53;;;2.50;;
61709;SDS011;47633;51.494;5.386;2023-03-03T13:27:31;5.13;;;2.53;;
61709;SDS011;47633;51.494;5.386;2023-03-03T13:38:24;5.22;;;2.63;;
61709;SDS011;47633;51.494;5.386;2023-03-03T13:41:03;5.43;;;2.65;;
61709;SDS011;47633;51.494;5.386;2023-03-03T13:54:40;4.18;;;2.00;;
61709;SDS011;47633;51.494;5.386;2023-03-03T14:00:26;4.45;;;2.13;;
61709;SDS011;47633;51.494;5.386;2023-03-03T14:03:10;6.07;;;2.58;;
61709;SDS011;47633;51.494;5.386;2023-03-03T14:08:30;4.63;;;2.53;;
61709;SDS011;47633;51.494;5.386;2023-03-03T14:11:13;6.57;;;2.50;;
61709;SDS011;47633;51.494;5.386;2023-03-03T14:14:02;5.13;;;2.45;;
61709;SDS011;47633;51.494;5.386;2023-03-03T14:16:51;5.50;;;2.55;;
61709;SDS011;47633;51.494;5.386;2023-03-03T14:19:25;6.40;;;2.83;;
61709;SDS011;47633;51.494;5.386;2023-03-03T14:24:30;6.78;;;2.80;;
61709;SDS011;47633;51.494;5.386;2023-03-03T14:26:57;5.47;;;2.72;;
61709;SDS011;47633;51.494;5.386;2023-03-03T14:31:55;5.72;;;2.60;;
61709;SDS011;47633;51.494;5.386;2023-03-03T14:36:48;4.47;;;2.43;;
61709;SDS011;47633;51.494;5.386;2023-03-03T14:42:01;6.30;;;2.50;;
61709;SDS011;47633;51.494;5.386;2023-03-03T14:44:35;6.43;;;2.40;;
61709;SDS011;47633;51.494;5.386;2023-03-03T14:47:25;5.93;;;2.65;;
61709;SDS011;47633;51.494;5.386;2023-03-03T14:49:52;5.43;;;2.30;;
61709;SDS011;47633;51.494;5.386;2023-03-03T14:52:27;4.72;;;2.30;;
61709;SDS011;47633;51.494;5.386;2023-03-03T14:54:57;5.63;;;2.20;;
61709;SDS011;47633;51.494;5.386;2023-03-03T15:00:25;5.97;;;2.85;;
61709;SDS011;47633;51.494;5.386;2023-03-03T15:05:20;5.25;;;2.30;;
61709;SDS011;47633;51.494;5.386;2023-03-03T15:07:49;4.78;;;2.40;;
61709;SDS011;47633;51.494;5.386;2023-03-03T15:10:27;5.22;;;2.35;;
61709;SDS011;47633;51.494;5.386;2023-03-03T15:12:55;5.38;;;2.30;;
61709;SDS011;47633;51.494;5.386;2023-03-03T15:15:21;4.70;;;2.17;;
61709;SDS011;47633;51.494;5.386;2023-03-03T15:20:39;7.05;;;2.45;;
61709;SDS011;47633;51.494;5.386;2023-03-03T15:23:16;9.32;;;2.35;;
61709;SDS011;47633;51.494;5.386;2023-03-03T15:31:09;7.28;;;2.30;;
61709;SDS011;47633;51.494;5.386;2023-03-03T15:40:04;4.35;;;2.10;;
61709;SDS011;47633;51.494;5.386;2023-03-03T15:45:28;4.32;;;2.03;;
61709;SDS011;47633;51.494;5.386;2023-03-03T15:53:29;4.95;;;1.95;;
61709;SDS011;47633;51.494;5.386;2023-03-03T15:58:45;5.40;;;2.17;;
61709;SDS011;47633;51.494;5.386;2023-03-03T16:01:33;5.13;;;1.90;;
61709;SDS011;47633;51.494;5.386;2023-03-03T16:04:05;4.30;;;1.90;;
61709;SDS011;47633;51.494;5.386;2023-03-03T16:06:39;3.75;;;1.70;;
61709;SDS011;47633;51.494;5.386;2023-03-03T16:12:28;5.07;;;1.83;;
61709;SDS011;47633;51.494;5.386;2023-03-03T16:17:49;4.75;;;1.90;;
61709;SDS011;47633;51.494;5.386;2023-03-03T16:23:10;6.75;;;2.60;;
61709;SDS011;47633;51.494;5.386;2023-03-03T16:25:56;10.98;;;3.22;;
61709;SDS011;47633;51.494;5.386;2023-03-03T16:31:06;11.40;;;5.45;;
61709;SDS011;47633;51.494;5.386;2023-03-03T16:36:55;9.50;;;4.88;;
61709;SDS011;47633;51.494;5.386;2023-03-03T16:42:25;12.73;;;4.35;;
61709;SDS011;47633;51.494;5.386;2023-03-03T16:50:41;9.30;;;4.10;;
61709;SDS011;47633;51.494;5.386;2023-03-03T16:53:17;13.20;;;4.15;;
61709;SDS011;47633;51.494;5.386;2023-03-03T16:55:56;10.77;;;3.63;;
61709;SDS011;47633;51.494;5.386;2023-03-03T17:20:45;8.23;;;2.60;;
61709;SDS011;47633;51.494;5.386;2023-03-03T17:23:25;9.23;;;2.33;;
61709;SDS011;47633;51.494;5.386;2023-03-03T17:34:45;5.78;;;2.22;;
61709;SDS011;47633;51.494;5.386;2023-03-03T17:45:52;6.82;;;2.30;;
61709;SDS011;47633;51.494;5.386;2023-03-03T17:54:00;5.72;;;1.90;;
61709;SDS011;47633;51.494;5.386;2023-03-03T18:08:49;5.18;;;1.73;;
61709;SDS011;47633;51.494;5.386;2023-03-03T18:13:50;3.30;;;1.33;;
61709;SDS011;47633;51.494;5.386;2023-03-03T18:19:29;5.75;;;2.00;;
61709;SDS011;47633;51.494;5.386;2023-03-03T18:22:12;6.57;;;1.42;;
61709;SDS011;47633;51.494;5.386;2023-03-03T18:37:56;4.10;;;1.30;;
61709;SDS011;47633;51.494;5.386;2023-03-03T18:40:51;5.68;;;1.33;;
61709;SDS011;47633;51.494;5.386;2023-03-03T19:07:16;3.92;;;1.30;;
61709;SDS011;47633;51.494;5.386;2023-03-03T19:18:14;3.73;;;1.20;;
61709;SDS011;47633;51.494;5.386;2023-03-03T19:20:52;3.28;;;1.30;;
61709;SDS011;47633;51.494;5.386;2023-03-03T19:34:52;4.15;;;1.40;;
61709;SDS011;47633;51.494;5.386;2023-03-03T19:40:17;5.45;;;1.88;;
61709;SDS011;47633;51.494;5.386;2023-03-03T19:45:39;4.93;;;1.73;;
61709;SDS011;47633;51.494;5.386;2023-03-03T19:53:52;4.25;;;1.98;;
61709;SDS011;47633;51.494;5.386;2023-03-03T19:57:08;5.53;;;2.03;;
61709;SDS011;47633;51.494;5.386;2023-03-03T20:02:23;5.90;;;2.00;;
61709;SDS011;47633;51.494;5.386;2023-03-03T20:15:57;4.43;;;1.50;;
61709;SDS011;47633;51.494;5.386;2023-03-03T20:26:44;4.07;;;1.50;;
61709;SDS011;47633;51.494;5.386;2023-03-03T20:29:38;3.47;;;1.73;;
61709;SDS011;47633;51.494;5.386;2023-03-03T20:32:37;3.92;;;1.65;;
61709;SDS011;47633;51.494;5.386;2023-03-03T20:46:40;5.20;;;1.77;;
61709;SDS011;47633;51.494;5.386;2023-03-03T20:52:02;3.53;;;1.40;;
61709;SDS011;47633;51.494;5.386;2023-03-03T20:54:52;4.68;;;1.50;;
61709;SDS011;47633;51.494;5.386;2023-03-03T21:00:06;3.90;;;1.50;;
61709;SDS011;47633;51.494;5.386;2023-03-03T21:05:24;5.10;;;1.75;;
61709;SDS011;47633;51.494;5.386;2023-03-03T21:10:24;3.17;;;1.23;;
61709;SDS011;47633;51.494;5.386;2023-03-03T21:12:52;4.40;;;1.67;;
61709;SDS011;47633;51.494;5.386;2023-03-03T21:15:26;5.75;;;1.85;;
61709;SDS011;47633;51.494;5.386;2023-03-03T21:17:54;5.63;;;2.30;;
61709;SDS011;47633;51.494;5.386;2023-03-03T21:20:31;4.95;;;1.40;;
61709;SDS011;47633;51.494;5.386;2023-03-03T21:22:59;5.45;;;1.60;;
61709;SDS011;47633;51.494;5.386;2023-03-03T21:25:40;4.10;;;1.63;;
61709;SDS011;47633;51.494;5.386;2023-03-03T21:36:16;4.95;;;1.63;;
61709;SDS011;47633;51.494;5.386;2023-03-03T21:38:47;6.65;;;1.60;;
61709;SDS011;47633;51.494;5.386;2023-03-03T21:41:14;5.88;;;1.83;;
61709;SDS011;47633;51.494;5.386;2023-03-03T21:43:42;4.00;;;1.58;;
61709;SDS011;47633;51.494;5.386;2023-03-03T21:46:09;5.15;;;1.50;;
61709;SDS011;47633;51.494;5.386;2023-03-03T21:48:38;5.45;;;2.03;;
61709;SDS011;47633;51.494;5.386;2023-03-03T21:51:05;5.68;;;1.75;;
61709;SDS011;47633;51.494;5.386;2023-03-03T21:53:30;4.60;;;1.60;;
61709;SDS011;47633;51.494;5.386;2023-03-03T21:55:55;4.70;;;1.63;;
61709;SDS011;47633;51.494;5.386;2023-03-03T21:58:20;4.80;;;1.77;;
61709;SDS011;47633;51.494;5.386;2023-03-03T22:00:46;6.70;;;1.67;;
61709;SDS011;47633;51.494;5.386;2023-03-03T22:03:12;4.82;;;1.73;;
61709;SDS011;47633;51.494;5.386;2023-03-03T22:05:39;5.78;;;1.77;;
61709;SDS011;47633;51.494;5.386;2023-03-03T22:08:04;5.22;;;1.63;;
61709;SDS011;47633;51.494;5.386;2023-03-03T22:10:30;6.25;;;1.65;;
61709;SDS011;47633;51.494;5.386;2023-03-03T22:12:55;5.30;;;1.92;;
61709;SDS011;47633;51.494;5.386;2023-03-03T22:15:20;5.38;;;1.77;;